sensor_id;sensor_type;location;lat;lon;timestamp;temperature;humidity
71837;DHT22;59686;51.716;7.016;2024-03-23T00:56:04;12.60;99.90
71837;DHT22;59686;51.716;7.016;2024-03-23T00:58:30;12.60;99.90
71837;DHT22;59686;51.716;7.016;2024-03-23T01:00:56;12.60;99.90
71837;DHT22;59686;51.716;7.016;2024-03-23T01:03:21;12.60;99.90
71837;DHT22;59686;51.716;7.016;2024-03-23T01:05:47;12.60;99.90
71837;DHT22;59686;51.716;7.016;2024-03-23T01:08:14;12.50;99.90
71837;DHT22;59686;51.716;7.016;2024-03-23T01:10:40;12.60;99.90
71837;DHT22;59686;51.716;7.016;2024-03-23T01:13:05;12.60;99.90
71837;DHT22;59686;51.716;7.016;2024-03-23T01:15:31;12.50;99.90
71837;DHT22;59686;51.716;7.016;2024-03-23T01:17:57;12.60;99.90
71837;DHT22;59686;51.716;7.016;2024-03-23T01:20:23;12.60;99.90
71837;DHT22;59686;51.716;7.016;2024-03-23T01:22:48;12.50;99.90
71837;DHT22;59686;51.716;7.016;2024-03-23T01:25:14;12.50;99.90
71837;DHT22;59686;51.716;7.016;2024-03-23T01:27:39;12.50;99.90
71837;DHT22;59686;51.716;7.016;2024-03-23T01:30:06;12.50;99.90
71837;DHT22;59686;51.716;7.016;2024-03-23T01:32:31;12.50;99.90
71837;DHT22;59686;51.716;7.016;2024-03-23T01:35:02;12.50;99.90
71837;DHT22;59686;51.716;7.016;2024-03-23T01:37:29;12.50;99.90
71837;DHT22;59686;51.716;7.016;2024-03-23T01:39:55;12.50;99.90
71837;DHT22;59686;51.716;7.016;2024-03-23T01:42:20;12.50;99.90
71837;DHT22;59686;51.716;7.016;2024-03-23T01:44:46;12.50;99.90
71837;DHT22;59686;51.716;7.016;2024-03-23T01:47:12;12.50;99.90
71837;DHT22;59686;51.716;7.016;2024-03-23T01:49:37;12.50;99.90
71837;DHT22;59686;51.716;7.016;2024-03-23T01:52:03;12.50;99.90
71837;DHT22;59686;51.716;7.016;2024-03-23T01:54:29;12.50;99.90
71837;DHT22;59686;51.716;7.016;2024-03-23T01:56:55;12.50;99.90
71837;DHT22;59686;51.716;7.016;2024-03-23T01:59:21;12.50;99.90
71837;DHT22;59686;51.716;7.016;2024-03-23T02:01:47;12.50;99.90
71837;DHT22;59686;51.716;7.016;2024-03-23T02:04:13;12.50;99.90
71837;DHT22;59686;51.716;7.016;2024-03-23T02:06:38;12.50;99.90
71837;DHT22;59686;51.716;7.016;2024-03-23T02:09:05;12.50;99.90
71837;DHT22;59686;51.716;7.016;2024-03-23T02:11:31;12.50;99.90
71837;DHT22;59686;51.716;7.016;2024-03-23T02:13:57;12.40;99.90
71837;DHT22;59686;51.716;7.016;2024-03-23T02:16:23;12.40;99.90
71837;DHT22;59686;51.716;7.016;2024-03-23T02:18:49;12.40;99.90
71837;DHT22;59686;51.716;7.016;2024-03-23T02:21:15;12.40;99.90
71837;DHT22;59686;51.716;7.016;2024-03-23T02:23:41;12.30;99.90
71837;DHT22;59686;51.716;7.016;2024-03-23T02:26:06;12.40;99.90
71837;DHT22;59686;51.716;7.016;2024-03-23T02:28:32;12.40;99.90
71837;DHT22;59686;51.716;7.016;2024-03-23T02:30:58;12.40;99.90
71837;DHT22;59686;51.716;7.016;2024-03-23T02:33:32;12.40;99.90
71837;DHT22;59686;51.716;7.016;2024-03-23T02:35:59;12.40;99.90
71837;DHT22;59686;51.716;7.016;2024-03-23T02:38:25;12.40;99.90
71837;DHT22;59686;51.716;7.016;2024-03-23T02:40:50;12.40;99.90
71837;DHT22;59686;51.716;7.016;2024-03-23T02:43:16;12.40;99.90
71837;DHT22;59686;51.716;7.016;2024-03-23T02:45:42;12.40;99.90
71837;DHT22;59686;51.716;7.016;2024-03-23T02:48:08;12.30;99.90
71837;DHT22;59686;51.716;7.016;2024-03-23T02:50:36;12.30;99.90
71837;DHT22;59686;51.716;7.016;2024-03-23T02:53:02;12.40;99.90
71837;DHT22;59686;51.716;7.016;2024-03-23T02:55:28;12.30;99.90
71837;DHT22;59686;51.716;7.016;2024-03-23T02:57:54;12.30;99.90
71837;DHT22;59686;51.716;7.016;2024-03-23T03:00:19;12.30;99.90
71837;DHT22;59686;51.716;7.016;2024-03-23T03:02:45;12.30;99.90
71837;DHT22;59686;51.716;7.016;2024-03-23T03:05:11;12.30;99.90
71837;DHT22;59686;51.716;7.016;2024-03-23T03:07:39;12.30;99.90
71837;DHT22;59686;51.716;7.016;2024-03-23T03:10:06;12.30;99.90
71837;DHT22;59686;51.716;7.016;2024-03-23T03:12:34;12.30;99.90
71837;DHT22;59686;51.716;7.016;2024-03-23T03:14:59;12.30;99.90
71837;DHT22;59686;51.716;7.016;2024-03-23T03:17:26;12.20;99.90
71837;DHT22;59686;51.716;7.016;2024-03-23T03:19:52;12.20;99.70
71837;DHT22;59686;51.716;7.016;2024-03-23T03:22:21;12.20;99.90
71837;DHT22;59686;51.716;7.016;2024-03-23T03:24:47;12.20;99.90
71837;DHT22;59686;51.716;7.016;2024-03-23T03:27:13;12.20;99.90
71837;DHT22;59686;51.716;7.016;2024-03-23T03:29:39;12.20;99.90
71837;DHT22;59686;51.716;7.016;2024-03-23T03:32:05;12.20;99.90
71837;DHT22;59686;51.716;7.016;2024-03-23T03:34:31;12.20;99.90
71837;DHT22;59686;51.716;7.016;2024-03-23T03:36:57;12.20;99.90
71837;DHT22;59686;51.716;7.016;2024-03-23T03:39:24;12.20;99.90
71837;DHT22;59686;51.716;7.016;2024-03-23T03:41:50;12.20;99.90
71837;DHT22;59686;51.716;7.016;2024-03-23T03:44:16;12.20;99.90
71837;DHT22;59686;51.716;7.016;2024-03-23T03:46:42;12.20;99.90
71837;DHT22;59686;51.716;7.016;2024-03-23T03:49:08;12.20;99.80
71837;DHT22;59686;51.716;7.016;2024-03-23T03:51:34;12.20;99.90
71837;DHT22;59686;51.716;7.016;2024-03-23T03:53:59;12.20;99.90
71837;DHT22;59686;51.716;7.016;2024-03-23T03:56:25;12.20;99.90
71837;DHT22;59686;51.716;7.016;2024-03-23T03:58:51;12.20;99.80
71837;DHT22;59686;51.716;7.016;2024-03-23T04:01:17;12.20;99.90
71837;DHT22;59686;51.716;7.016;2024-03-23T04:03:43;12.20;99.90
71837;DHT22;59686;51.716;7.016;2024-03-23T04:06:18;12.10;99.90
71837;DHT22;59686;51.716;7.016;2024-03-23T04:08:43;12.10;99.80
71837;DHT22;59686;51.716;7.016;2024-03-23T04:11:09;12.10;99.80
71837;DHT22;59686;51.716;7.016;2024-03-23T04:13:41;12.20;99.90
71837;DHT22;59686;51.716;7.016;2024-03-23T04:16:07;12.10;99.80
71837;DHT22;59686;51.716;7.016;2024-03-23T04:18:34;12.10;99.80
71837;DHT22;59686;51.716;7.016;2024-03-23T04:21:00;12.10;99.70
71837;DHT22;59686;51.716;7.016;2024-03-23T04:23:26;12.10;99.80
71837;DHT22;59686;51.716;7.016;2024-03-23T04:25:52;12.10;99.80
71837;DHT22;59686;51.716;7.016;2024-03-23T04:28:23;12.00;99.70
71837;DHT22;59686;51.716;7.016;2024-03-23T04:30:49;12.10;99.80
71837;DHT22;59686;51.716;7.016;2024-03-23T04:33:15;12.00;99.70
71837;DHT22;59686;51.716;7.016;2024-03-23T04:35:41;12.00;99.70
71837;DHT22;59686;51.716;7.016;2024-03-23T04:38:06;12.00;99.60
71837;DHT22;59686;51.716;7.016;2024-03-23T04:40:32;12.10;99.70
71837;DHT22;59686;51.716;7.016;2024-03-23T04:42:58;12.00;99.60
71837;DHT22;59686;51.716;7.016;2024-03-23T04:45:29;12.00;99.60
71837;DHT22;59686;51.716;7.016;2024-03-23T04:47:54;11.90;99.50
71837;DHT22;59686;51.716;7.016;2024-03-23T04:50:20;12.00;99.50
71837;DHT22;59686;51.716;7.016;2024-03-23T04:52:46;12.00;99.40
71837;DHT22;59686;51.716;7.016;2024-03-23T04:55:12;12.00;99.40
71837;DHT22;59686;51.716;7.016;2024-03-23T04:57:38;11.90;99.30
71837;DHT22;59686;51.716;7.016;2024-03-23T05:00:04;11.90;99.30
71837;DHT22;59686;51.716;7.016;2024-03-23T05:02:42;11.90;99.30
71837;DHT22;59686;51.716;7.016;2024-03-23T05:05:08;12.00;99.30
71837;DHT22;59686;51.716;7.016;2024-03-23T05:07:34;11.90;99.20
71837;DHT22;59686;51.716;7.016;2024-03-23T05:10:00;11.90;99.30
71837;DHT22;59686;51.716;7.016;2024-03-23T05:12:25;11.90;99.30
71837;DHT22;59686;51.716;7.016;2024-03-23T05:14:51;11.90;99.20
71837;DHT22;59686;51.716;7.016;2024-03-23T05:17:17;11.90;99.20
71837;DHT22;59686;51.716;7.016;2024-03-23T05:19:42;11.80;99.30
71837;DHT22;59686;51.716;7.016;2024-03-23T05:22:09;11.90;99.30
71837;DHT22;59686;51.716;7.016;2024-03-23T05:24:35;11.90;99.30
71837;DHT22;59686;51.716;7.016;2024-03-23T05:27:01;11.90;99.20
71837;DHT22;59686;51.716;7.016;2024-03-23T05:29:26;11.90;99.30
71837;DHT22;59686;51.716;7.016;2024-03-23T05:31:52;11.80;99.30
71837;DHT22;59686;51.716;7.016;2024-03-23T05:34:18;11.80;99.20
71837;DHT22;59686;51.716;7.016;2024-03-23T05:36:44;11.70;99.10
71837;DHT22;59686;51.716;7.016;2024-03-23T05:39:12;11.80;99.20
71837;DHT22;59686;51.716;7.016;2024-03-23T05:41:37;11.80;99.20
71837;DHT22;59686;51.716;7.016;2024-03-23T05:44:03;11.80;99.20
71837;DHT22;59686;51.716;7.016;2024-03-23T05:46:29;11.80;99.30
71837;DHT22;59686;51.716;7.016;2024-03-23T05:49:01;11.80;99.20
71837;DHT22;59686;51.716;7.016;2024-03-23T05:51:27;11.80;99.30
71837;DHT22;59686;51.716;7.016;2024-03-23T05:53:53;11.80;99.30
71837;DHT22;59686;51.716;7.016;2024-03-23T05:56:20;11.80;99.30
71837;DHT22;59686;51.716;7.016;2024-03-23T05:58:45;11.80;99.30
71837;DHT22;59686;51.716;7.016;2024-03-23T06:01:12;11.80;99.20
71837;DHT22;59686;51.716;7.016;2024-03-23T06:03:38;11.70;99.20
71837;DHT22;59686;51.716;7.016;2024-03-23T06:06:04;11.70;99.30
71837;DHT22;59686;51.716;7.016;2024-03-23T06:08:33;11.70;99.20
71837;DHT22;59686;51.716;7.016;2024-03-23T06:10:58;11.70;99.20
71837;DHT22;59686;51.716;7.016;2024-03-23T06:13:24;11.70;99.30
71837;DHT22;59686;51.716;7.016;2024-03-23T06:15:55;11.70;99.30
71837;DHT22;59686;51.716;7.016;2024-03-23T06:18:20;11.70;99.20
71837;DHT22;59686;51.716;7.016;2024-03-23T06:20:46;11.70;99.20
71837;DHT22;59686;51.716;7.016;2024-03-23T06:23:24;11.70;99.20
71837;DHT22;59686;51.716;7.016;2024-03-23T06:25:50;11.80;99.30
71837;DHT22;59686;51.716;7.016;2024-03-23T06:28:15;11.70;99.20
71837;DHT22;59686;51.716;7.016;2024-03-23T06:30:41;11.70;99.20
71837;DHT22;59686;51.716;7.016;2024-03-23T06:33:07;11.70;99.30
71837;DHT22;59686;51.716;7.016;2024-03-23T06:35:33;11.70;99.20
71837;DHT22;59686;51.716;7.016;2024-03-23T06:37:59;11.70;99.20
71837;DHT22;59686;51.716;7.016;2024-03-23T06:40:25;11.60;99.20
71837;DHT22;59686;51.716;7.016;2024-03-23T06:42:50;11.70;99.20
71837;DHT22;59686;51.716;7.016;2024-03-23T06:45:17;11.70;99.30
71837;DHT22;59686;51.716;7.016;2024-03-23T06:47:48;11.60;99.20
71837;DHT22;59686;51.716;7.016;2024-03-23T06:50:15;11.60;99.20
71837;DHT22;59686;51.716;7.016;2024-03-23T06:52:40;11.60;99.10
71837;DHT22;59686;51.716;7.016;2024-03-23T06:55:06;11.60;99.20
71837;DHT22;59686;51.716;7.016;2024-03-23T06:57:32;11.60;99.20
71837;DHT22;59686;51.716;7.016;2024-03-23T06:59:58;11.60;99.10
71837;DHT22;59686;51.716;7.016;2024-03-23T07:02:23;11.60;99.20
71837;DHT22;59686;51.716;7.016;2024-03-23T07:04:49;11.60;99.10
71837;DHT22;59686;51.716;7.016;2024-03-23T07:07:15;11.60;99.10
71837;DHT22;59686;51.716;7.016;2024-03-23T07:09:40;11.60;99.10
71837;DHT22;59686;51.716;7.016;2024-03-23T07:12:06;11.60;99.10
71837;DHT22;59686;51.716;7.016;2024-03-23T07:14:32;11.60;99.00
71837;DHT22;59686;51.716;7.016;2024-03-23T07:16:58;11.60;99.10
71837;DHT22;59686;51.716;7.016;2024-03-23T07:19:23;11.60;99.10
71837;DHT22;59686;51.716;7.016;2024-03-23T07:21:50;11.60;99.00
71837;DHT22;59686;51.716;7.016;2024-03-23T07:24:15;11.60;99.10
71837;DHT22;59686;51.716;7.016;2024-03-23T07:26:41;11.60;99.00
71837;DHT22;59686;51.716;7.016;2024-03-23T07:29:07;11.60;99.00
71837;DHT22;59686;51.716;7.016;2024-03-23T07:31:33;11.60;99.00
71837;DHT22;59686;51.716;7.016;2024-03-23T07:33:58;11.50;98.80
71837;DHT22;59686;51.716;7.016;2024-03-23T07:36:24;11.50;98.80
71837;DHT22;59686;51.716;7.016;2024-03-23T07:38:50;11.50;98.90
71837;DHT22;59686;51.716;7.016;2024-03-23T07:41:20;11.50;98.90
71837;DHT22;59686;51.716;7.016;2024-03-23T07:43:47;11.50;98.80
71837;DHT22;59686;51.716;7.016;2024-03-23T07:46:16;11.50;98.70
71837;DHT22;59686;51.716;7.016;2024-03-23T07:48:41;11.50;98.70
71837;DHT22;59686;51.716;7.016;2024-03-23T07:51:15;11.50;98.70
71837;DHT22;59686;51.716;7.016;2024-03-23T07:53:43;11.50;98.60
71837;DHT22;59686;51.716;7.016;2024-03-23T07:56:10;11.50;98.40
71837;DHT22;59686;51.716;7.016;2024-03-23T07:58:36;11.50;98.60
71837;DHT22;59686;51.716;7.016;2024-03-23T08:01:07;11.50;98.50
71837;DHT22;59686;51.716;7.016;2024-03-23T08:03:37;11.40;98.50
71837;DHT22;59686;51.716;7.016;2024-03-23T08:06:20;11.50;98.30
71837;DHT22;59686;51.716;7.016;2024-03-23T08:08:47;11.40;98.30
71837;DHT22;59686;51.716;7.016;2024-03-23T08:11:13;11.40;98.30
71837;DHT22;59686;51.716;7.016;2024-03-23T08:13:40;11.40;98.00
71837;DHT22;59686;51.716;7.016;2024-03-23T08:16:06;11.40;98.10
71837;DHT22;59686;51.716;7.016;2024-03-23T08:18:32;11.40;98.00
71837;DHT22;59686;51.716;7.016;2024-03-23T08:20:59;11.40;97.90
71837;DHT22;59686;51.716;7.016;2024-03-23T08:23:29;11.30;97.70
71837;DHT22;59686;51.716;7.016;2024-03-23T08:26:02;11.40;97.70
71837;DHT22;59686;51.716;7.016;2024-03-23T08:28:30;11.40;98.10
71837;DHT22;59686;51.716;7.016;2024-03-23T08:30:57;11.40;97.90
71837;DHT22;59686;51.716;7.016;2024-03-23T08:33:23;11.50;97.80
71837;DHT22;59686;51.716;7.016;2024-03-23T08:35:55;11.40;97.60
71837;DHT22;59686;51.716;7.016;2024-03-23T08:38:21;11.40;97.60
71837;DHT22;59686;51.716;7.016;2024-03-23T08:40:47;11.40;97.70
71837;DHT22;59686;51.716;7.016;2024-03-23T08:43:13;11.50;97.60
71837;DHT22;59686;51.716;7.016;2024-03-23T08:45:38;11.40;97.70
71837;DHT22;59686;51.716;7.016;2024-03-23T08:48:04;11.40;97.50
71837;DHT22;59686;51.716;7.016;2024-03-23T08:50:30;11.30;97.30
71837;DHT22;59686;51.716;7.016;2024-03-23T08:52:56;11.30;97.40
71837;DHT22;59686;51.716;7.016;2024-03-23T08:55:22;11.30;97.30
71837;DHT22;59686;51.716;7.016;2024-03-23T08:57:47;11.30;97.30
71837;DHT22;59686;51.716;7.016;2024-03-23T09:00:13;11.30;97.20
71837;DHT22;59686;51.716;7.016;2024-03-23T09:02:40;11.30;97.50
71837;DHT22;59686;51.716;7.016;2024-03-23T09:05:05;11.40;97.40
71837;DHT22;59686;51.716;7.016;2024-03-23T09:07:31;11.40;97.20
71837;DHT22;59686;51.716;7.016;2024-03-23T09:09:57;11.30;97.20
71837;DHT22;59686;51.716;7.016;2024-03-23T09:12:23;11.30;97.00
71837;DHT22;59686;51.716;7.016;2024-03-23T09:14:50;11.30;96.80
71837;DHT22;59686;51.716;7.016;2024-03-23T09:17:16;11.30;97.10
71837;DHT22;59686;51.716;7.016;2024-03-23T09:19:41;11.20;96.50
71837;DHT22;59686;51.716;7.016;2024-03-23T09:22:07;11.20;96.50
71837;DHT22;59686;51.716;7.016;2024-03-23T09:24:32;11.20;96.40
71837;DHT22;59686;51.716;7.016;2024-03-23T09:26:58;11.20;96.40
71837;DHT22;59686;51.716;7.016;2024-03-23T09:29:24;11.30;96.30
71837;DHT22;59686;51.716;7.016;2024-03-23T09:31:49;11.20;96.30
71837;DHT22;59686;51.716;7.016;2024-03-23T09:34:15;11.20;96.00
71837;DHT22;59686;51.716;7.016;2024-03-23T09:36:41;11.20;96.20
71837;DHT22;59686;51.716;7.016;2024-03-23T09:39:07;11.20;96.00
71837;DHT22;59686;51.716;7.016;2024-03-23T09:41:35;11.20;95.90
71837;DHT22;59686;51.716;7.016;2024-03-23T09:44:01;11.20;95.80
71837;DHT22;59686;51.716;7.016;2024-03-23T09:46:27;11.20;95.80
71837;DHT22;59686;51.716;7.016;2024-03-23T09:48:55;11.20;95.60
71837;DHT22;59686;51.716;7.016;2024-03-23T09:51:22;11.20;95.30
71837;DHT22;59686;51.716;7.016;2024-03-23T09:53:50;11.20;95.30
71837;DHT22;59686;51.716;7.016;2024-03-23T09:56:16;11.20;95.30
71837;DHT22;59686;51.716;7.016;2024-03-23T09:58:42;11.30;95.20
71837;DHT22;59686;51.716;7.016;2024-03-23T10:01:09;11.20;94.40
71837;DHT22;59686;51.716;7.016;2024-03-23T10:03:45;11.20;94.50
71837;DHT22;59686;51.716;7.016;2024-03-23T10:06:11;11.20;94.60
71837;DHT22;59686;51.716;7.016;2024-03-23T10:08:37;11.20;94.40
71837;DHT22;59686;51.716;7.016;2024-03-23T10:11:13;11.20;94.20
71837;DHT22;59686;51.716;7.016;2024-03-23T10:13:42;11.10;93.90
71837;DHT22;59686;51.716;7.016;2024-03-23T10:16:09;11.10;94.00
71837;DHT22;59686;51.716;7.016;2024-03-23T10:18:41;11.10;93.70
71837;DHT22;59686;51.716;7.016;2024-03-23T10:23:36;11.20;93.40
71837;DHT22;59686;51.716;7.016;2024-03-23T10:26:21;11.20;93.40
71837;DHT22;59686;51.716;7.016;2024-03-23T10:29:05;11.10;93.00
71837;DHT22;59686;51.716;7.016;2024-03-23T10:31:40;11.10;93.00
71837;DHT22;59686;51.716;7.016;2024-03-23T10:34:08;11.10;93.10
71837;DHT22;59686;51.716;7.016;2024-03-23T10:36:34;11.20;93.30
71837;DHT22;59686;51.716;7.016;2024-03-23T10:39:05;11.20;92.70
71837;DHT22;59686;51.716;7.016;2024-03-23T10:41:33;11.20;93.00
71837;DHT22;59686;51.716;7.016;2024-03-23T10:43:59;11.20;92.70
71837;DHT22;59686;51.716;7.016;2024-03-23T10:46:27;11.20;92.50
71837;DHT22;59686;51.716;7.016;2024-03-23T10:48:52;11.20;92.90
71837;DHT22;59686;51.716;7.016;2024-03-23T10:51:31;11.20;92.70
71837;DHT22;59686;51.716;7.016;2024-03-23T10:53:57;11.20;92.40
71837;DHT22;59686;51.716;7.016;2024-03-23T10:56:26;11.20;92.50
71837;DHT22;59686;51.716;7.016;2024-03-23T10:58:54;11.30;92.50
71837;DHT22;59686;51.716;7.016;2024-03-23T11:01:20;11.30;92.50
71837;DHT22;59686;51.716;7.016;2024-03-23T11:03:57;11.30;92.60
71837;DHT22;59686;51.716;7.016;2024-03-23T11:06:37;11.20;92.50
71837;DHT22;59686;51.716;7.016;2024-03-23T11:09:03;11.20;92.50
71837;DHT22;59686;51.716;7.016;2024-03-23T11:11:29;11.20;92.80
71837;DHT22;59686;51.716;7.016;2024-03-23T11:13:57;11.20;93.20
71837;DHT22;59686;51.716;7.016;2024-03-23T11:16:29;11.30;93.40
71837;DHT22;59686;51.716;7.016;2024-03-23T11:19:34;11.30;93.40
71837;DHT22;59686;51.716;7.016;2024-03-23T11:22:01;11.30;93.40
71837;DHT22;59686;51.716;7.016;2024-03-23T11:24:27;11.30;93.40
71837;DHT22;59686;51.716;7.016;2024-03-23T11:26:53;11.20;93.00
71837;DHT22;59686;51.716;7.016;2024-03-23T11:29:18;11.30;93.30
71837;DHT22;59686;51.716;7.016;2024-03-23T11:31:52;11.30;93.00
71837;DHT22;59686;51.716;7.016;2024-03-23T11:34:22;11.30;92.80
71837;DHT22;59686;51.716;7.016;2024-03-23T11:36:48;11.20;92.70
71837;DHT22;59686;51.716;7.016;2024-03-23T11:39:17;11.20;92.50
71837;DHT22;59686;51.716;7.016;2024-03-23T11:41:51;11.20;92.40
71837;DHT22;59686;51.716;7.016;2024-03-23T11:44:25;11.20;92.40
71837;DHT22;59686;51.716;7.016;2024-03-23T11:46:51;11.20;92.60
71837;DHT22;59686;51.716;7.016;2024-03-23T11:49:27;11.30;92.80
71837;DHT22;59686;51.716;7.016;2024-03-23T11:51:54;11.20;92.30
71837;DHT22;59686;51.716;7.016;2024-03-23T11:54:30;11.30;92.50
71837;DHT22;59686;51.716;7.016;2024-03-23T11:57:01;11.20;92.40
71837;DHT22;59686;51.716;7.016;2024-03-23T11:59:37;11.30;92.60
71837;DHT22;59686;51.716;7.016;2024-03-23T12:02:13;11.30;92.60
71837;DHT22;59686;51.716;7.016;2024-03-23T12:04:42;11.40;92.30
71837;DHT22;59686;51.716;7.016;2024-03-23T12:07:18;11.30;92.10
71837;DHT22;59686;51.716;7.016;2024-03-23T12:09:45;11.40;92.20
71837;DHT22;59686;51.716;7.016;2024-03-23T12:12:15;11.40;92.00
71837;DHT22;59686;51.716;7.016;2024-03-23T12:14:45;11.50;92.20
71837;DHT22;59686;51.716;7.016;2024-03-23T12:17:27;11.60;92.40
71837;DHT22;59686;51.716;7.016;2024-03-23T12:19:53;11.50;92.40
71837;DHT22;59686;51.716;7.016;2024-03-23T12:22:22;11.50;91.90
71837;DHT22;59686;51.716;7.016;2024-03-23T12:24:48;11.50;92.00
71837;DHT22;59686;51.716;7.016;2024-03-23T12:27:14;11.40;92.00
71837;DHT22;59686;51.716;7.016;2024-03-23T12:29:40;11.40;92.90
71837;DHT22;59686;51.716;7.016;2024-03-23T12:32:14;11.40;93.50
71837;DHT22;59686;51.716;7.016;2024-03-23T12:34:40;11.30;93.90
71837;DHT22;59686;51.716;7.016;2024-03-23T12:37:07;11.30;94.10
71837;DHT22;59686;51.716;7.016;2024-03-23T12:39:33;11.40;94.40
71837;DHT22;59686;51.716;7.016;2024-03-23T12:42:00;11.30;94.60
71837;DHT22;59686;51.716;7.016;2024-03-23T12:44:27;11.30;94.70
71837;DHT22;59686;51.716;7.016;2024-03-23T12:46:52;11.20;94.80
71837;DHT22;59686;51.716;7.016;2024-03-23T12:49:18;11.30;95.00
71837;DHT22;59686;51.716;7.016;2024-03-23T12:51:56;11.30;95.10
71837;DHT22;59686;51.716;7.016;2024-03-23T12:54:23;11.40;95.20
71837;DHT22;59686;51.716;7.016;2024-03-23T12:56:49;11.40;95.20
71837;DHT22;59686;51.716;7.016;2024-03-23T12:59:15;11.40;95.30
71837;DHT22;59686;51.716;7.016;2024-03-23T13:01:42;11.40;95.30
71837;DHT22;59686;51.716;7.016;2024-03-23T13:04:09;11.30;95.40
71837;DHT22;59686;51.716;7.016;2024-03-23T13:06:35;11.20;95.40
71837;DHT22;59686;51.716;7.016;2024-03-23T13:09:01;11.30;95.40
71837;DHT22;59686;51.716;7.016;2024-03-23T13:11:28;11.30;95.30
71837;DHT22;59686;51.716;7.016;2024-03-23T13:13:56;11.30;95.00
71837;DHT22;59686;51.716;7.016;2024-03-23T13:16:22;11.20;95.00
71837;DHT22;59686;51.716;7.016;2024-03-23T13:18:48;11.20;94.40
71837;DHT22;59686;51.716;7.016;2024-03-23T13:21:13;11.20;93.90
71837;DHT22;59686;51.716;7.016;2024-03-23T13:23:39;11.10;93.30
71837;DHT22;59686;51.716;7.016;2024-03-23T13:26:07;11.10;93.30
71837;DHT22;59686;51.716;7.016;2024-03-23T13:28:33;11.10;93.30
71837;DHT22;59686;51.716;7.016;2024-03-23T13:30:59;11.10;93.00
71837;DHT22;59686;51.716;7.016;2024-03-23T13:33:29;11.10;93.00
71837;DHT22;59686;51.716;7.016;2024-03-23T13:35:55;11.10;93.00
71837;DHT22;59686;51.716;7.016;2024-03-23T13:38:22;11.20;93.10
71837;DHT22;59686;51.716;7.016;2024-03-23T13:40:52;11.10;92.90
71837;DHT22;59686;51.716;7.016;2024-03-23T13:43:24;11.00;92.70
71837;DHT22;59686;51.716;7.016;2024-03-23T13:45:54;11.00;92.70
71837;DHT22;59686;51.716;7.016;2024-03-23T13:48:21;11.10;92.80
71837;DHT22;59686;51.716;7.016;2024-03-23T13:50:56;11.20;93.10
71837;DHT22;59686;51.716;7.016;2024-03-23T13:53:31;11.30;93.30
71837;DHT22;59686;51.716;7.016;2024-03-23T13:56:00;11.20;93.00
71837;DHT22;59686;51.716;7.016;2024-03-23T13:58:26;11.30;93.10
71837;DHT22;59686;51.716;7.016;2024-03-23T14:00:58;11.30;93.10
71837;DHT22;59686;51.716;7.016;2024-03-23T14:03:24;11.30;93.00
71837;DHT22;59686;51.716;7.016;2024-03-23T14:05:50;11.30;93.00
71837;DHT22;59686;51.716;7.016;2024-03-23T14:08:17;11.50;93.30
71837;DHT22;59686;51.716;7.016;2024-03-23T14:10:43;11.40;93.40
71837;DHT22;59686;51.716;7.016;2024-03-23T14:13:09;11.40;93.60
71837;DHT22;59686;51.716;7.016;2024-03-23T14:15:34;11.40;93.20
71837;DHT22;59686;51.716;7.016;2024-03-23T14:18:02;11.50;93.40
71837;DHT22;59686;51.716;7.016;2024-03-23T14:20:28;11.40;93.40
71837;DHT22;59686;51.716;7.016;2024-03-23T14:22:54;11.50;93.30
71837;DHT22;59686;51.716;7.016;2024-03-23T14:25:20;11.40;93.30
71837;DHT22;59686;51.716;7.016;2024-03-23T14:27:48;11.30;93.30
71837;DHT22;59686;51.716;7.016;2024-03-23T14:30:14;11.40;93.60
71837;DHT22;59686;51.716;7.016;2024-03-23T14:32:41;11.30;93.70
71837;DHT22;59686;51.716;7.016;2024-03-23T14:35:07;11.30;93.70
71837;DHT22;59686;51.716;7.016;2024-03-23T14:37:36;11.30;93.70
71837;DHT22;59686;51.716;7.016;2024-03-23T14:40:02;11.30;93.50
71837;DHT22;59686;51.716;7.016;2024-03-23T14:42:28;11.30;93.30
71837;DHT22;59686;51.716;7.016;2024-03-23T14:44:57;11.40;93.30
71837;DHT22;59686;51.716;7.016;2024-03-23T14:47:31;11.40;92.70
71837;DHT22;59686;51.716;7.016;2024-03-23T14:49:57;11.40;92.40
71837;DHT22;59686;51.716;7.016;2024-03-23T14:52:26;11.30;92.20
71837;DHT22;59686;51.716;7.016;2024-03-23T14:54:51;11.30;92.20
71837;DHT22;59686;51.716;7.016;2024-03-23T14:57:17;11.50;92.00
71837;DHT22;59686;51.716;7.016;2024-03-23T14:59:44;11.50;91.70
71837;DHT22;59686;51.716;7.016;2024-03-23T15:02:10;11.50;91.80
71837;DHT22;59686;51.716;7.016;2024-03-23T15:04:40;11.60;92.30
71837;DHT22;59686;51.716;7.016;2024-03-23T15:07:07;11.60;92.00
71837;DHT22;59686;51.716;7.016;2024-03-23T15:09:33;11.60;91.90
71837;DHT22;59686;51.716;7.016;2024-03-23T15:11:59;11.60;91.30
71837;DHT22;59686;51.716;7.016;2024-03-23T15:14:24;11.60;91.40
71837;DHT22;59686;51.716;7.016;2024-03-23T15:16:50;11.60;91.70
71837;DHT22;59686;51.716;7.016;2024-03-23T15:19:18;11.60;90.60
71837;DHT22;59686;51.716;7.016;2024-03-23T15:21:44;11.60;90.30
71837;DHT22;59686;51.716;7.016;2024-03-23T15:24:10;11.60;90.20
71837;DHT22;59686;51.716;7.016;2024-03-23T15:26:37;11.60;90.10
71837;DHT22;59686;51.716;7.016;2024-03-23T15:29:03;11.60;90.30
71837;DHT22;59686;51.716;7.016;2024-03-23T15:31:35;11.60;90.30
71837;DHT22;59686;51.716;7.016;2024-03-23T15:34:01;11.60;90.10
71837;DHT22;59686;51.716;7.016;2024-03-23T15:36:27;11.60;89.80
71837;DHT22;59686;51.716;7.016;2024-03-23T15:38:52;11.50;89.70
71837;DHT22;59686;51.716;7.016;2024-03-23T15:41:20;11.60;89.10
71837;DHT22;59686;51.716;7.016;2024-03-23T15:43:48;11.60;89.60
71837;DHT22;59686;51.716;7.016;2024-03-23T15:46:14;11.70;90.40
71837;DHT22;59686;51.716;7.016;2024-03-23T15:48:41;11.70;90.10
71837;DHT22;59686;51.716;7.016;2024-03-23T15:51:15;11.70;90.30
71837;DHT22;59686;51.716;7.016;2024-03-23T15:53:41;11.70;89.10
71837;DHT22;59686;51.716;7.016;2024-03-23T15:56:07;11.60;88.40
71837;DHT22;59686;51.716;7.016;2024-03-23T15:58:33;11.60;88.80
71837;DHT22;59686;51.716;7.016;2024-03-23T16:01:03;11.70;88.20
71837;DHT22;59686;51.716;7.016;2024-03-23T16:03:31;11.60;87.70
71837;DHT22;59686;51.716;7.016;2024-03-23T16:06:04;11.60;87.50
71837;DHT22;59686;51.716;7.016;2024-03-23T16:08:31;11.60;88.00
71837;DHT22;59686;51.716;7.016;2024-03-23T16:11:04;11.50;87.90
71837;DHT22;59686;51.716;7.016;2024-03-23T16:13:31;11.60;88.50
71837;DHT22;59686;51.716;7.016;2024-03-23T16:16:02;11.60;89.10
71837;DHT22;59686;51.716;7.016;2024-03-23T16:18:36;11.60;90.10
71837;DHT22;59686;51.716;7.016;2024-03-23T16:21:03;11.50;88.90
71837;DHT22;59686;51.716;7.016;2024-03-23T16:23:34;11.50;89.00
71837;DHT22;59686;51.716;7.016;2024-03-23T16:26:03;11.50;89.30
71837;DHT22;59686;51.716;7.016;2024-03-23T16:28:30;11.50;89.10